createdAt,value
2019-01-29T00:00:35.489Z,69.30
2019-01-29T00:01:36.605Z,69.10
2019-01-29T00:02:37.641Z,69.30
2019-01-29T00:03:39.975Z,69.10
2019-01-29T00:04:40.983Z,69.10
2019-01-29T00:05:42.103Z,68.90
2019-01-29T00:06:43.228Z,68.90
2019-01-29T00:07:44.241Z,69.00
2019-01-29T00:08:45.252Z,68.90
2019-01-29T00:09:46.266Z,69.10
2019-01-29T00:10:47.288Z,69.10
2019-01-29T00:11:48.314Z,69.40
2019-01-29T00:12:49.315Z,69.50
2019-01-29T00:13:50.327Z,69.30
2019-01-29T00:14:51.345Z,69.40
2019-01-29T00:15:52.364Z,69.40
2019-01-29T00:16:53.376Z,69.40
2019-01-29T00:17:54.401Z,69.50
2019-01-29T00:18:55.460Z,69.30
2019-01-29T00:19:56.458Z,69.30
2019-01-29T00:20:57.506Z,69.30
2019-01-29T00:21:58.605Z,69.30
2019-01-29T00:22:59.615Z,69.50
2019-01-29T00:24:00.636Z,69.50
2019-01-29T00:25:03.060Z,69.80
2019-01-29T00:26:04.092Z,69.60
2019-01-29T00:27:05.096Z,69.60
2019-01-29T00:28:06.103Z,69.80
2019-01-29T00:29:07.121Z,69.80
2019-01-29T00:30:13.616Z,69.70
2019-01-29T00:31:14.650Z,69.70
2019-01-29T00:32:15.659Z,69.60
2019-01-29T00:33:16.671Z,69.30
2019-01-29T00:34:17.684Z,69.50
2019-01-29T00:35:18.728Z,69.70
2019-01-29T00:36:19.751Z,69.70
2019-01-29T00:37:20.777Z,69.70
2019-01-29T00:38:21.772Z,69.60
2019-01-29T00:39:22.792Z,69.80
2019-01-29T00:41:32.433Z,69.50
2019-01-29T00:42:33.488Z,69.60
2019-01-29T00:43:34.504Z,69.30
2019-01-29T00:44:35.523Z,69.40
2019-01-29T00:45:38.242Z,69.20
2019-01-29T00:46:39.301Z,69.20
2019-01-29T00:47:40.367Z,69.70
2019-01-29T00:48:41.388Z,69.80
2019-01-29T00:49:42.411Z,69.60
2019-01-29T00:50:43.415Z,69.80
2019-01-29T00:51:44.520Z,69.60
2019-01-29T00:52:45.541Z,69.60
2019-01-29T00:53:46.568Z,69.50
2019-01-29T00:54:47.583Z,69.80
2019-01-29T00:55:48.616Z,69.50
2019-01-29T00:56:49.640Z,70.10
2019-01-29T00:57:50.662Z,69.10
2019-01-29T00:58:51.672Z,69.10
2019-01-29T00:59:52.690Z,69.10
2019-01-29T01:00:53.700Z,69.00
2019-01-29T01:01:54.751Z,69.20
2019-01-29T01:02:55.764Z,68.90
2019-01-29T01:03:56.780Z,69.00
2019-01-29T01:04:57.785Z,69.00
2019-01-29T01:05:58.992Z,69.10
2019-01-29T01:07:00.037Z,69.00
2019-01-29T01:08:01.052Z,69.10
2019-01-29T01:09:04.768Z,68.90
2019-01-29T01:10:09.196Z,68.70
2019-01-29T01:11:10.213Z,68.60
2019-01-29T01:12:11.231Z,68.90
2019-01-29T01:13:12.300Z,68.90
2019-01-29T01:14:13.305Z,68.70
2019-01-29T01:15:14.536Z,68.90
2019-01-29T01:16:15.557Z,69.10
2019-01-29T01:17:16.598Z,69.00
2019-01-29T01:18:17.603Z,69.10
2019-01-29T01:19:18.621Z,69.00
2019-01-29T01:20:19.639Z,68.90
2019-01-29T01:21:20.656Z,69.20
2019-01-29T01:22:21.677Z,69.30
2019-01-29T01:23:24.252Z,69.30
2019-01-29T01:24:25.329Z,69.30
2019-01-29T01:25:26.340Z,69.10
2019-01-29T01:26:27.351Z,69.00
2019-01-29T01:27:28.369Z,68.80
2019-01-29T01:28:29.385Z,68.50
2019-01-29T01:29:30.395Z,68.70
2019-01-29T01:30:31.411Z,68.70
2019-01-29T01:31:32.523Z,68.80
2019-01-29T01:32:33.811Z,68.80
2019-01-29T01:33:34.824Z,68.80
2019-01-29T01:34:35.863Z,68.70
2019-01-29T01:35:37.112Z,68.60
2019-01-29T01:36:38.120Z,68.80
2019-01-29T01:37:39.168Z,68.70
2019-01-29T01:38:40.168Z,68.80
2019-01-29T01:39:41.251Z,68.60
2019-01-29T01:40:42.315Z,68.90
2019-01-29T01:41:43.327Z,68.70
2019-01-29T01:42:44.356Z,68.70
2019-01-29T01:43:45.438Z,68.70
2019-01-29T01:44:46.492Z,68.70
2019-01-29T01:45:47.515Z,68.70
2019-01-29T01:46:48.596Z,68.40
2019-01-29T01:47:49.613Z,68.30
2019-01-29T01:48:50.638Z,67.90
2019-01-29T01:49:51.648Z,67.90
2019-01-29T01:50:52.681Z,68.20
2019-01-29T01:51:53.697Z,68.30
2019-01-29T01:52:59.394Z,68.80
2019-01-29T01:53:57.870Z,68.10
2019-01-29T01:54:58.882Z,68.10
2019-01-29T01:55:59.892Z,68.30
2019-01-29T01:57:01.216Z,67.90
2019-01-29T01:58:02.240Z,67.90
2019-01-29T01:59:03.352Z,67.80
2019-01-29T02:00:08.171Z,67.90
2019-01-29T02:01:09.286Z,67.90
2019-01-29T02:02:10.312Z,68.00
2019-01-29T02:03:11.325Z,67.80
2019-01-29T02:04:12.348Z,68.20
2019-01-29T02:05:13.555Z,68.20
2019-01-29T02:06:14.581Z,68.30
2019-01-29T02:07:15.612Z,68.30
2019-01-29T02:08:16.621Z,68.30
2019-01-29T02:09:17.637Z,68.20
2019-01-29T02:10:24.237Z,68.00
2019-01-29T02:11:25.253Z,67.90
2019-01-29T02:12:26.297Z,67.30
2019-01-29T02:13:27.313Z,68.10
2019-01-29T02:14:28.349Z,67.80
2019-01-29T02:15:29.381Z,67.80
2019-01-29T02:16:30.416Z,67.90
2019-01-29T02:17:31.454Z,67.90
2019-01-29T02:18:32.473Z,67.90
2019-01-29T02:19:33.497Z,67.90
2019-01-29T02:20:34.517Z,67.80
2019-01-29T02:21:35.541Z,68.00
2019-01-29T02:22:36.566Z,68.80
2019-01-29T02:23:37.584Z,68.10
2019-01-29T02:24:38.605Z,67.90
2019-01-29T02:25:39.625Z,67.90
2019-01-29T02:26:40.649Z,67.90
2019-01-29T02:27:41.990Z,69.00
2019-01-29T02:28:43.009Z,68.20
2019-01-29T02:29:44.024Z,68.20
2019-01-29T02:30:45.049Z,68.20
2019-01-29T02:31:46.072Z,68.20
2019-01-29T02:32:47.108Z,68.30
2019-01-29T02:33:48.184Z,68.50
2019-01-29T02:34:49.434Z,68.50
2019-01-29T02:35:50.457Z,68.60
2019-01-29T02:36:51.472Z,68.60
2019-01-29T02:37:52.509Z,68.70
2019-01-29T02:38:53.535Z,68.70
2019-01-29T02:39:54.544Z,68.60
2019-01-29T02:40:55.676Z,68.90
2019-01-29T02:41:56.708Z,68.50
2019-01-29T02:42:57.733Z,69.10
2019-01-29T02:43:58.765Z,69.00
2019-01-29T02:44:59.793Z,69.00
2019-01-29T02:46:00.823Z,69.30
2019-01-29T02:47:01.844Z,69.10
2019-01-29T02:48:03.180Z,69.10
2019-01-29T02:49:04.205Z,68.80
2019-01-29T02:50:07.826Z,69.00
2019-01-29T02:51:08.841Z,68.90
2019-01-29T02:52:09.865Z,69.00
2019-01-29T02:53:18.167Z,69.00
2019-01-29T02:54:13.846Z,69.10
2019-01-29T02:55:15.254Z,68.80
2019-01-29T02:56:16.281Z,69.00
2019-01-29T02:57:17.312Z,69.10
2019-01-29T02:58:18.364Z,68.80
2019-01-29T02:59:19.386Z,68.70
2019-01-29T03:00:47.115Z,68.50
2019-01-29T03:01:48.144Z,68.70
2019-01-29T03:02:49.182Z,68.80
2019-01-29T03:03:50.196Z,68.60
2019-01-29T03:04:53.381Z,68.60
2019-01-29T03:05:54.169Z,68.80
2019-01-29T03:06:55.225Z,68.70
2019-01-29T03:07:56.273Z,68.50
2019-01-29T03:08:57.391Z,68.40
2019-01-29T03:09:58.417Z,68.50
2019-01-29T03:10:59.438Z,68.50
2019-01-29T03:12:00.501Z,68.60
2019-01-29T03:13:01.526Z,68.30
2019-01-29T03:14:02.872Z,68.30
2019-01-29T03:15:10.728Z,68.20
2019-01-29T03:16:11.856Z,67.80
2019-01-29T03:17:12.875Z,67.70
2019-01-29T03:18:14.139Z,67.90
2019-01-29T03:19:15.214Z,67.90
2019-01-29T03:20:16.483Z,68.00
2019-01-29T03:21:17.505Z,67.90
2019-01-29T03:22:18.530Z,68.10
2019-01-29T03:23:27.228Z,68.30
2019-01-29T03:24:22.485Z,68.50
2019-01-29T03:25:23.510Z,68.40
2019-01-29T03:26:24.532Z,68.50
2019-01-29T03:27:25.553Z,68.00
2019-01-29T03:28:26.591Z,68.20
2019-01-29T03:29:27.938Z,68.20
2019-01-29T03:30:28.969Z,68.00
2019-01-29T03:31:29.998Z,67.90
2019-01-29T03:32:31.034Z,68.10
2019-01-29T03:33:32.068Z,68.00
2019-01-29T03:34:33.088Z,68.10
2019-01-29T03:35:34.110Z,68.00
2019-01-29T03:36:35.120Z,68.10
2019-01-29T03:37:36.128Z,68.10
2019-01-29T03:38:37.282Z,67.90
2019-01-29T03:39:38.361Z,67.90
2019-01-29T03:40:39.394Z,68.00
2019-01-29T03:41:40.406Z,67.80
2019-01-29T03:42:41.412Z,68.40
2019-01-29T03:43:42.443Z,67.30
2019-01-29T03:44:43.552Z,67.20
2019-01-29T03:45:46.501Z,67.20
2019-01-29T03:46:47.527Z,67.20
2019-01-29T03:47:48.552Z,67.30
2019-01-29T03:48:49.877Z,67.40
2019-01-29T03:49:50.902Z,67.40
2019-01-29T03:50:51.966Z,67.30
2019-01-29T03:51:52.963Z,67.30
2019-01-29T03:52:54.092Z,67.30
2019-01-29T03:53:55.128Z,67.20
2019-01-29T03:54:56.134Z,67.30
2019-01-29T03:55:57.148Z,67.30
2019-01-29T03:56:58.157Z,67.20
2019-01-29T03:57:59.186Z,67.20
2019-01-29T03:59:00.207Z,67.20
2019-01-29T04:00:01.636Z,67.20
2019-01-29T04:01:03.074Z,67.20
2019-01-29T04:02:04.168Z,67.40
2019-01-29T04:03:05.301Z,67.30
2019-01-29T04:04:06.358Z,67.30
2019-01-29T04:05:07.569Z,67.20
2019-01-29T04:06:08.591Z,67.20
2019-01-29T04:07:09.608Z,67.20
2019-01-29T04:08:10.633Z,67.20
2019-01-29T04:09:11.635Z,67.10
2019-01-29T04:10:15.874Z,67.10
2019-01-29T04:11:17.169Z,67.30
2019-01-29T04:12:18.179Z,67.20
2019-01-29T04:13:19.195Z,67.10
2019-01-29T04:14:20.213Z,67.20
2019-01-29T04:15:22.022Z,67.10
2019-01-29T04:16:23.033Z,67.10
2019-01-29T04:17:24.055Z,67.10
2019-01-29T04:18:25.087Z,67.20
2019-01-29T04:19:26.936Z,67.10
2019-01-29T04:20:27.947Z,67.10
2019-01-29T04:21:28.962Z,67.90
2019-01-29T04:22:29.988Z,67.10
2019-01-29T04:23:31.009Z,67.10
2019-01-29T04:24:32.015Z,67.10
2019-01-29T04:25:33.036Z,67.10
2019-01-29T04:26:34.048Z,67.10
2019-01-29T04:27:35.061Z,67.10
2019-01-29T04:28:36.190Z,67.40
2019-01-29T04:29:37.228Z,67.50
2019-01-29T04:30:38.249Z,67.40
2019-01-29T04:31:39.270Z,67.60
2019-01-29T04:32:40.284Z,67.80
2019-01-29T04:33:41.296Z,67.60
2019-01-29T04:34:42.308Z,67.80
2019-01-29T04:35:43.327Z,67.80
2019-01-29T04:36:44.344Z,67.90
2019-01-29T04:37:45.462Z,67.80
2019-01-29T04:38:46.483Z,67.90
2019-01-29T04:39:47.500Z,68.10
2019-01-29T04:40:48.565Z,67.80
2019-01-29T04:41:49.597Z,67.60
2019-01-29T04:42:50.608Z,67.70
2019-01-29T04:43:51.628Z,67.60
2019-01-29T04:44:52.641Z,67.30
2019-01-29T04:45:53.665Z,67.30
2019-01-29T04:46:54.682Z,67.40
2019-01-29T04:47:55.720Z,67.30
2019-01-29T04:48:56.751Z,67.50
2019-01-29T04:49:57.768Z,67.40
2019-01-29T04:50:58.789Z,67.20
2019-01-29T04:51:59.807Z,67.00
2019-01-29T04:53:00.833Z,67.50
2019-01-29T04:54:01.970Z,67.40
2019-01-29T04:55:05.591Z,67.30
2019-01-29T04:56:06.608Z,67.00
2019-01-29T04:57:07.649Z,67.10
2019-01-29T04:58:08.674Z,67.20
2019-01-29T04:59:09.700Z,67.30
2019-01-29T05:00:16.785Z,67.10
2019-01-29T05:01:18.498Z,67.20
2019-01-29T05:02:19.664Z,66.90
2019-01-29T05:03:20.676Z,67.00
2019-01-29T05:04:21.696Z,67.20
2019-01-29T05:05:23.108Z,66.80
2019-01-29T05:06:24.112Z,66.70
2019-01-29T05:07:25.137Z,67.00
2019-01-29T05:08:26.157Z,67.00
2019-01-29T05:09:27.171Z,67.10
2019-01-29T05:10:28.188Z,67.10
2019-01-29T05:11:29.316Z,67.30
2019-01-29T05:12:30.324Z,67.20
2019-01-29T05:13:31.340Z,67.20
2019-01-29T05:14:32.373Z,67.20
2019-01-29T05:15:33.384Z,66.60
2019-01-29T05:16:34.405Z,66.20
2019-01-29T05:17:35.415Z,66.30
2019-01-29T05:18:36.440Z,66.20
2019-01-29T05:19:37.467Z,66.10
2019-01-29T05:20:38.475Z,66.10
2019-01-29T05:21:39.487Z,66.00
2019-01-29T05:22:40.497Z,65.80
2019-01-29T05:23:41.512Z,66.20
2019-01-29T05:24:42.540Z,65.90
2019-01-29T05:25:43.553Z,65.70
2019-01-29T05:26:44.579Z,65.80
2019-01-29T05:27:45.680Z,65.60
2019-01-29T05:28:46.692Z,65.60
2019-01-29T05:29:47.723Z,65.60
2019-01-29T05:30:48.733Z,66.30
2019-01-29T05:31:49.752Z,65.30
2019-01-29T05:32:50.856Z,65.20
2019-01-29T05:33:51.874Z,65.10
2019-01-29T05:34:52.948Z,65.40
2019-01-29T05:35:53.948Z,64.90
2019-01-29T05:36:54.959Z,64.40
2019-01-29T05:37:55.964Z,65.20
2019-01-29T05:38:56.983Z,64.90
2019-01-29T05:39:57.996Z,64.90
2019-01-29T05:40:59.013Z,65.00
2019-01-29T05:42:00.022Z,64.90
2019-01-29T05:43:01.033Z,65.00
2019-01-29T05:44:02.263Z,65.00
2019-01-29T05:45:06.768Z,64.70
2019-01-29T05:46:07.785Z,64.70
2019-01-29T05:47:08.792Z,65.00
2019-01-29T05:48:09.813Z,65.20
2019-01-29T05:49:10.857Z,65.10
2019-01-29T05:50:13.380Z,65.00
2019-01-29T05:51:14.432Z,64.80
2019-01-29T05:52:15.528Z,64.70
2019-01-29T05:53:16.533Z,65.00
2019-01-29T05:54:18.156Z,64.90
2019-01-29T05:55:19.170Z,65.30
2019-01-29T05:56:20.184Z,65.00
2019-01-29T05:57:21.195Z,65.20
2019-01-29T05:58:22.225Z,65.50
2019-01-29T05:59:23.252Z,65.60
2019-01-29T06:00:27.763Z,65.50
2019-01-29T06:01:28.777Z,65.30
2019-01-29T06:02:29.784Z,65.50
2019-01-29T06:03:30.796Z,65.40
2019-01-29T06:04:31.820Z,65.20
2019-01-29T06:05:32.856Z,65.20
2019-01-29T06:06:33.876Z,65.30
2019-01-29T06:07:34.895Z,65.40
2019-01-29T06:08:35.900Z,65.00
2019-01-29T06:09:36.950Z,65.10
2019-01-29T06:10:37.944Z,65.20
2019-01-29T06:11:38.948Z,65.20
2019-01-29T06:12:39.961Z,65.30
2019-01-29T06:13:40.968Z,65.50
2019-01-29T06:14:42.019Z,65.80
2019-01-29T06:15:43.030Z,64.80
2019-01-29T06:16:44.036Z,64.90
2019-01-29T06:17:45.047Z,64.90
2019-01-29T06:18:46.064Z,65.00
2019-01-29T06:19:47.095Z,65.00
2019-01-29T06:20:48.116Z,65.70
2019-01-29T06:21:49.133Z,66.00
2019-01-29T06:22:50.139Z,65.10
2019-01-29T06:23:51.158Z,64.90
2019-01-29T06:24:52.216Z,65.60
2019-01-29T06:25:53.232Z,64.80
2019-01-29T06:26:54.243Z,64.80
2019-01-29T06:27:55.292Z,64.60
2019-01-29T06:28:56.304Z,64.50
2019-01-29T06:29:57.332Z,64.30
2019-01-29T06:30:58.348Z,64.40
2019-01-29T06:31:59.364Z,64.50
2019-01-29T06:33:00.376Z,64.60
2019-01-29T06:34:01.394Z,64.60
2019-01-29T06:35:04.944Z,64.70
2019-01-29T06:36:05.953Z,64.90
2019-01-29T06:37:06.970Z,65.10
2019-01-29T06:38:07.994Z,65.10
2019-01-29T06:39:09.010Z,65.20
2019-01-29T06:40:13.536Z,64.90
2019-01-29T06:41:14.649Z,65.20
2019-01-29T06:42:15.659Z,65.30
2019-01-29T06:43:16.677Z,65.20
2019-01-29T06:44:17.693Z,65.30
2019-01-29T06:45:20.732Z,65.40
2019-01-29T06:46:21.743Z,65.50
2019-01-29T06:47:23.110Z,65.30
2019-01-29T06:48:24.116Z,65.20
2019-01-29T06:49:25.139Z,65.00
2019-01-29T06:50:26.263Z,65.10
2019-01-29T06:51:27.291Z,64.50
2019-01-29T06:52:28.297Z,64.90
2019-01-29T06:53:29.312Z,64.80
2019-01-29T06:54:34.250Z,64.90
2019-01-29T06:55:33.668Z,65.10
2019-01-29T06:56:34.686Z,65.00
2019-01-29T06:57:35.708Z,65.00
2019-01-29T06:58:36.727Z,64.90
2019-01-29T06:59:37.736Z,65.00
2019-01-29T07:00:38.767Z,65.00
2019-01-29T07:01:39.851Z,65.90
2019-01-29T07:02:41.464Z,65.20
2019-01-29T07:03:42.480Z,64.50
2019-01-29T07:04:43.517Z,64.40
2019-01-29T07:05:44.541Z,64.60
2019-01-29T07:06:45.601Z,64.50
2019-01-29T07:07:46.612Z,64.60
2019-01-29T07:08:47.649Z,64.40
2019-01-29T07:09:48.739Z,64.60
2019-01-29T07:10:49.781Z,64.40
2019-01-29T07:11:58.539Z,64.40
2019-01-29T07:12:59.548Z,64.70
2019-01-29T07:14:00.604Z,64.70
2019-01-29T07:15:03.201Z,64.80
2019-01-29T07:16:06.132Z,64.80
2019-01-29T07:17:09.135Z,64.80
2019-01-29T07:18:12.207Z,64.80
2019-01-29T07:19:15.126Z,64.80
2019-01-29T07:20:16.133Z,64.60
2019-01-29T07:21:17.268Z,64.60
2019-01-29T07:22:18.280Z,64.40
2019-01-29T07:23:19.300Z,64.30
2019-01-29T07:24:20.324Z,64.50
2019-01-29T07:25:21.325Z,65.00
2019-01-29T07:26:22.347Z,64.60
2019-01-29T07:27:23.679Z,64.70
2019-01-29T07:28:24.770Z,65.00
2019-01-29T07:29:25.813Z,64.80
2019-01-29T07:30:26.825Z,65.00
2019-01-29T07:31:27.887Z,65.00
2019-01-29T07:32:28.899Z,64.80
2019-01-29T07:33:29.993Z,64.90
2019-01-29T07:34:31.009Z,64.80
2019-01-29T07:35:32.044Z,64.80
2019-01-29T07:36:33.067Z,64.70
2019-01-29T07:37:34.092Z,64.80
2019-01-29T07:38:35.100Z,64.60
2019-01-29T07:39:36.115Z,64.10
2019-01-29T07:40:37.145Z,64.30
2019-01-29T07:41:38.163Z,64.20
2019-01-29T07:42:39.192Z,64.40
2019-01-29T07:43:40.217Z,64.40
2019-01-29T07:44:41.239Z,64.50
2019-01-29T07:45:42.260Z,64.20
2019-01-29T07:46:43.280Z,64.30
2019-01-29T07:47:44.401Z,64.80
2019-01-29T07:48:45.651Z,63.70
2019-01-29T07:49:46.659Z,63.80
2019-01-29T07:50:47.715Z,64.10
2019-01-29T07:51:48.736Z,64.00
2019-01-29T07:52:49.749Z,64.10
2019-01-29T07:53:50.789Z,64.00
2019-01-29T07:54:51.828Z,63.90
2019-01-29T07:55:52.839Z,64.10
2019-01-29T07:56:53.855Z,64.20
2019-01-29T07:57:55.115Z,64.10
2019-01-29T07:58:56.225Z,64.30
2019-01-29T07:59:57.238Z,64.60
2019-01-29T08:00:58.253Z,64.00
2019-01-29T08:01:59.273Z,64.10
2019-01-29T08:03:00.304Z,64.20
2019-01-29T08:04:01.307Z,64.10
2019-01-29T08:05:03.644Z,64.10
2019-01-29T08:06:04.665Z,64.30
2019-01-29T08:07:05.795Z,64.20
2019-01-29T08:08:07.017Z,64.20
2019-01-29T08:09:08.126Z,64.10
2019-01-29T08:10:12.139Z,64.10
2019-01-29T08:11:13.258Z,64.30
2019-01-29T08:12:14.289Z,63.90
2019-01-29T08:13:15.305Z,63.70
2019-01-29T08:14:16.356Z,64.60
2019-01-29T08:15:19.279Z,63.70
2019-01-29T08:16:20.295Z,63.60
2019-01-29T08:17:21.325Z,63.80
2019-01-29T08:18:22.341Z,63.30
2019-01-29T08:19:23.352Z,64.30
2019-01-29T08:20:24.529Z,64.60
2019-01-29T08:21:25.556Z,64.70
2019-01-29T08:22:29.381Z,64.80
2019-01-29T08:23:30.400Z,64.80
2019-01-29T08:24:31.420Z,65.20
2019-01-29T08:25:32.484Z,65.90
2019-01-29T08:26:33.616Z,65.40
2019-01-29T08:27:34.662Z,65.60
2019-01-29T08:28:35.758Z,65.80
2019-01-29T08:29:36.788Z,65.70
2019-01-29T08:30:37.799Z,65.60
2019-01-29T08:31:38.843Z,65.50
2019-01-29T08:32:39.983Z,65.50
2019-01-29T08:33:41.001Z,65.50
2019-01-29T08:34:42.015Z,65.40
2019-01-29T08:35:43.024Z,65.40
2019-01-29T08:36:44.094Z,64.80
2019-01-29T08:37:45.207Z,65.20
2019-01-29T08:38:46.220Z,65.20
2019-01-29T08:39:47.312Z,65.20
2019-01-29T08:40:48.332Z,64.80
2019-01-29T08:41:49.363Z,64.80
2019-01-29T08:42:50.394Z,64.90
2019-01-29T08:43:51.429Z,64.80
2019-01-29T08:44:52.469Z,64.60
2019-01-29T08:45:54.296Z,64.50
2019-01-29T08:46:55.541Z,64.20
2019-01-29T08:47:56.560Z,64.10
2019-01-29T08:48:57.741Z,64.00
2019-01-29T08:49:58.763Z,64.00
2019-01-29T08:50:59.780Z,64.10
2019-01-29T08:52:00.813Z,64.00
2019-01-29T08:53:01.819Z,63.70
2019-01-29T08:54:02.840Z,63.30
2019-01-29T08:55:10.634Z,63.50
2019-01-29T08:56:07.278Z,63.80
2019-01-29T08:57:09.027Z,64.00
2019-01-29T08:58:11.516Z,63.50
2019-01-29T08:59:12.649Z,63.60
2019-01-29T09:00:18.391Z,63.60
2019-01-29T09:01:19.423Z,63.50
2019-01-29T09:02:20.652Z,63.70
2019-01-29T09:03:21.664Z,63.60
2019-01-29T09:04:22.728Z,63.70
2019-01-29T09:05:23.745Z,64.00
2019-01-29T09:06:24.764Z,64.00
2019-01-29T09:07:25.800Z,64.20
2019-01-29T09:08:27.099Z,64.20
2019-01-29T09:09:28.169Z,64.30
2019-01-29T09:10:29.192Z,64.20
2019-01-29T09:11:30.208Z,64.20
2019-01-29T09:12:31.252Z,64.00
2019-01-29T09:13:32.281Z,64.10
2019-01-29T09:14:33.353Z,63.70
2019-01-29T09:15:34.369Z,63.50
2019-01-29T09:16:35.384Z,63.80
2019-01-29T09:17:36.404Z,63.90
2019-01-29T09:18:37.421Z,64.10
2019-01-29T09:19:38.444Z,64.10
2019-01-29T09:20:39.461Z,63.60
2019-01-29T09:21:40.499Z,63.40
2019-01-29T09:22:41.527Z,63.70
2019-01-29T09:23:42.548Z,63.70
2019-01-29T09:24:43.813Z,63.40
2019-01-29T09:25:44.837Z,63.70
2019-01-29T09:26:45.848Z,64.30
2019-01-29T09:27:46.976Z,63.10
2019-01-29T09:28:48.009Z,63.30
2019-01-29T09:29:49.118Z,63.50
2019-01-29T09:30:50.124Z,63.30
2019-01-29T09:31:51.136Z,63.30
2019-01-29T09:32:52.392Z,63.30
2019-01-29T09:33:53.416Z,63.30
2019-01-29T09:34:54.439Z,63.20
2019-01-29T09:35:55.496Z,63.20
2019-01-29T09:36:56.577Z,63.50
2019-01-29T09:37:57.627Z,63.20
2019-01-29T09:38:58.956Z,63.40
2019-01-29T09:40:00.004Z,63.90
2019-01-29T09:41:01.119Z,64.00
2019-01-29T09:42:02.257Z,64.70
2019-01-29T09:43:03.284Z,64.10
2019-01-29T09:44:04.328Z,64.10
2019-01-29T09:45:09.056Z,64.00
2019-01-29T09:46:10.070Z,64.30
2019-01-29T09:47:11.193Z,64.50
2019-01-29T09:48:12.229Z,64.40
2019-01-29T09:49:13.254Z,64.00
2019-01-29T09:50:17.367Z,63.80
2019-01-29T09:51:18.384Z,63.80
2019-01-29T09:52:19.413Z,63.90
2019-01-29T09:53:20.435Z,63.80
2019-01-29T09:54:21.453Z,63.80
2019-01-29T09:55:29.278Z,63.70
2019-01-29T09:56:26.616Z,63.70
2019-01-29T09:57:27.632Z,63.70
2019-01-29T09:58:28.675Z,63.70
2019-01-29T09:59:29.719Z,63.40
2019-01-29T10:00:33.132Z,64.00
2019-01-29T10:01:34.160Z,63.20
2019-01-29T10:02:35.176Z,63.50
2019-01-29T10:03:36.222Z,63.40
2019-01-29T10:04:37.237Z,63.70
2019-01-29T10:05:38.360Z,63.70
2019-01-29T10:06:39.377Z,64.00
2019-01-29T10:07:40.425Z,63.50
2019-01-29T10:08:41.445Z,63.30
2019-01-29T10:09:42.461Z,63.50
2019-01-29T10:10:43.497Z,63.10
2019-01-29T10:11:44.549Z,63.70
2019-01-29T10:12:45.556Z,63.50
2019-01-29T10:13:46.619Z,63.90
2019-01-29T10:14:47.624Z,63.70
2019-01-29T10:15:48.649Z,64.00
2019-01-29T10:16:49.680Z,63.80
2019-01-29T10:17:50.785Z,63.20
2019-01-29T10:18:51.816Z,63.00
2019-01-29T10:19:52.824Z,63.30
2019-01-29T10:20:54.063Z,63.40
2019-01-29T10:21:55.188Z,63.40
2019-01-29T10:22:56.199Z,63.60
2019-01-29T10:23:57.218Z,63.40
2019-01-29T10:24:58.268Z,63.70
2019-01-29T10:25:59.447Z,63.00
2019-01-29T10:27:00.524Z,63.10
2019-01-29T10:28:01.536Z,62.90
2019-01-29T10:29:02.780Z,62.50
2019-01-29T10:30:07.486Z,62.70
2019-01-29T10:31:08.502Z,63.00
2019-01-29T10:32:09.528Z,63.50
2019-01-29T10:33:10.536Z,63.50
2019-01-29T10:34:11.581Z,63.20
2019-01-29T10:35:15.898Z,63.00
2019-01-29T10:36:17.359Z,62.70
2019-01-29T10:37:18.414Z,62.80
2019-01-29T10:38:20.223Z,62.20
2019-01-29T10:39:21.280Z,62.20
2019-01-29T10:40:26.399Z,62.30
2019-01-29T10:41:27.413Z,62.50
2019-01-29T10:42:28.432Z,62.60
2019-01-29T10:43:29.548Z,62.90
2019-01-29T10:44:30.570Z,63.10
2019-01-29T10:45:31.809Z,63.10
2019-01-29T10:46:32.895Z,63.20
2019-01-29T10:47:33.907Z,62.90
2019-01-29T10:48:35.330Z,62.90
2019-01-29T10:49:36.790Z,62.50
2019-01-29T10:50:40.355Z,62.40
2019-01-29T10:51:41.672Z,63.00
2019-01-29T10:52:42.851Z,62.70
2019-01-29T10:53:53.060Z,62.70
2019-01-29T10:54:54.957Z,62.90
2019-01-29T10:55:56.205Z,62.20
2019-01-29T10:57:00.848Z,62.90
2019-01-29T10:58:02.615Z,62.50
2019-01-29T10:59:03.870Z,62.00
2019-01-29T11:00:08.795Z,62.60
2019-01-29T11:01:09.947Z,62.60
2019-01-29T11:02:11.106Z,62.80
2019-01-29T11:03:12.299Z,62.50
2019-01-29T11:04:13.303Z,62.40
2019-01-29T11:05:17.215Z,62.70
2019-01-29T11:06:18.233Z,62.80
2019-01-29T11:07:19.259Z,62.50
2019-01-29T11:08:20.283Z,61.90
2019-01-29T11:09:25.596Z,62.50
2019-01-29T11:10:24.466Z,62.10
2019-01-29T11:11:27.018Z,61.90
2019-01-29T11:12:28.031Z,62.50
2019-01-29T11:13:29.179Z,62.70
2019-01-29T11:14:30.660Z,62.60
2019-01-29T11:15:34.700Z,62.80
2019-01-29T11:16:36.446Z,62.90
2019-01-29T11:17:39.412Z,62.70
2019-01-29T11:18:40.816Z,62.10
2019-01-29T11:19:42.249Z,61.60
2019-01-29T11:20:43.875Z,61.70
2019-01-29T11:21:45.277Z,62.90
2019-01-29T11:22:48.602Z,62.10
2019-01-29T11:23:51.732Z,61.80
2019-01-29T11:24:52.912Z,61.70
2019-01-29T11:25:56.149Z,61.60
2019-01-29T11:26:56.852Z,61.30
2019-01-29T11:27:58.025Z,61.60
2019-01-29T11:28:59.311Z,61.40
2019-01-29T11:30:08.535Z,60.90
2019-01-29T11:31:09.668Z,61.00
2019-01-29T11:32:10.844Z,60.20
2019-01-29T11:33:11.997Z,60.80
2019-01-29T11:34:16.117Z,60.90
2019-01-29T11:35:17.686Z,61.20
2019-01-29T11:36:18.883Z,60.80
2019-01-29T11:37:20.043Z,60.60
2019-01-29T11:38:21.208Z,60.60
2019-01-29T11:39:22.400Z,60.30
2019-01-29T11:40:29.684Z,60.10
2019-01-29T11:41:30.997Z,60.10
2019-01-29T11:42:32.090Z,60.20
2019-01-29T11:43:33.662Z,60.40
2019-01-29T11:44:34.999Z,60.10
2019-01-29T11:45:45.570Z,60.10
2019-01-29T11:46:46.784Z,60.20
2019-01-29T11:47:48.037Z,60.70
2019-01-29T11:48:49.200Z,59.80
2019-01-29T11:49:50.433Z,59.80
2019-01-29T11:50:51.712Z,60.00
2019-01-29T11:51:53.114Z,59.80
2019-01-29T11:52:54.530Z,59.80
2019-01-29T11:53:55.980Z,59.80
2019-01-29T11:54:57.171Z,59.80
2019-01-29T11:56:04.397Z,60.30
2019-01-29T11:57:03.877Z,59.80
2019-01-29T11:58:05.264Z,59.80
2019-01-29T11:59:06.434Z,59.80
2019-01-29T12:00:11.346Z,59.80
2019-01-29T12:01:12.908Z,59.80
2019-01-29T12:02:14.409Z,59.80
2019-01-29T12:03:19.493Z,59.80
2019-01-29T12:04:20.746Z,59.80
2019-01-29T12:05:21.876Z,57.80
2019-01-29T12:06:23.068Z,57.40
2019-01-29T12:07:24.357Z,57.90
2019-01-29T12:08:26.089Z,56.30
2019-01-29T12:09:27.260Z,56.60
2019-01-29T12:10:28.566Z,56.60
2019-01-29T12:11:29.708Z,57.10
2019-01-29T12:12:30.873Z,54.60
2019-01-29T12:13:32.235Z,55.10
2019-01-29T12:14:34.497Z,54.90
2019-01-29T12:15:35.732Z,54.80
2019-01-29T12:16:36.936Z,54.90
2019-01-29T12:17:38.007Z,54.80
2019-01-29T12:18:39.185Z,54.50
2019-01-29T12:19:40.434Z,54.90
2019-01-29T12:20:44.115Z,56.20
2019-01-29T12:21:45.332Z,56.30
2019-01-29T12:22:46.627Z,55.40
2019-01-29T12:23:48.009Z,55.80
2019-01-29T12:24:49.148Z,55.60
2019-01-29T12:25:50.660Z,55.80
2019-01-29T12:26:52.002Z,55.60
2019-01-29T12:27:53.628Z,55.80
2019-01-29T12:28:57.005Z,56.10
2019-01-29T12:29:58.183Z,56.40
2019-01-29T12:31:00.445Z,56.40
2019-01-29T12:32:04.769Z,56.40
2019-01-29T12:33:06.296Z,56.10
2019-01-29T12:34:08.708Z,56.10
2019-01-29T12:35:10.189Z,56.20
2019-01-29T12:36:11.606Z,56.40
2019-01-29T12:37:17.284Z,56.30
2019-01-29T12:38:18.553Z,57.70
2019-01-29T12:39:20.128Z,56.70
2019-01-29T12:40:21.407Z,56.90
2019-01-29T12:41:22.745Z,56.60
2019-01-29T12:42:24.230Z,56.40
2019-01-29T12:43:25.475Z,56.70
2019-01-29T12:44:27.259Z,56.40
2019-01-29T12:45:28.534Z,54.90
2019-01-29T12:46:29.670Z,55.70
2019-01-29T12:47:34.357Z,54.80
2019-01-29T12:48:35.652Z,54.30
2019-01-29T12:49:36.870Z,55.00
2019-01-29T12:50:42.121Z,55.40
2019-01-29T12:51:50.693Z,55.90
2019-01-29T12:53:08.876Z,56.00
2019-01-29T12:54:06.191Z,55.60
2019-01-29T12:55:09.762Z,55.70
2019-01-29T12:56:11.061Z,55.20
2019-01-29T12:57:12.258Z,55.60
2019-01-29T12:58:14.568Z,55.70
2019-01-29T12:59:15.786Z,55.30
2019-01-29T13:00:18.579Z,55.80
2019-01-29T13:01:20.149Z,54.70
2019-01-29T13:02:21.210Z,55.20
2019-01-29T13:03:22.237Z,55.10
2019-01-29T13:04:23.247Z,54.60
2019-01-29T13:05:24.263Z,54.80
2019-01-29T13:06:25.325Z,55.00
2019-01-29T13:07:26.366Z,55.20
2019-01-29T13:08:27.415Z,55.00
2019-01-29T13:09:28.496Z,54.60
2019-01-29T13:10:29.612Z,54.70
2019-01-29T13:11:30.641Z,55.00
2019-01-29T13:12:31.648Z,54.80